sensor_id;sensor_type;location;lat;lon;timestamp;P1;P2;P0
14880;PMS7003;7533;51.278;12.588;2023-06-01T00:01:20;1.00;0.25;0.00
14880;PMS7003;7533;51.278;12.588;2023-06-01T00:06:24;0.75;0.75;0.00
14880;PMS7003;7533;51.278;12.588;2023-06-01T00:11:29;1.00;1.00;0.50
14880;PMS7003;7533;51.278;12.588;2023-06-01T00:16:32;1.00;1.00;0.00
14880;PMS7003;7533;51.278;12.588;2023-06-01T00:21:36;0.50;0.50;0.00
14880;PMS7003;7533;51.278;12.588;2023-06-01T00:26:39;1.00;1.00;0.00
14880;PMS7003;7533;51.278;12.588;2023-06-01T00:31:42;1.50;1.00;0.00
14880;PMS7003;7533;51.278;12.588;2023-06-01T00:36:47;1.00;0.75;0.00
14880;PMS7003;7533;51.278;12.588;2023-06-01T00:41:50;1.00;1.00;0.00
14880;PMS7003;7533;51.278;12.588;2023-06-01T00:46:53;1.00;0.25;0.00
14880;PMS7003;7533;51.278;12.588;2023-06-01T00:51:57;3.25;1.50;0.25
14880;PMS7003;7533;51.278;12.588;2023-06-01T00:57:00;0.75;0.00;0.00
14880;PMS7003;7533;51.278;12.588;2023-06-01T01:02:04;0.00;0.00;0.00
14880;PMS7003;7533;51.278;12.588;2023-06-01T01:07:12;0.00;0.00;0.00
14880;PMS7003;7533;51.278;12.588;2023-06-01T01:12:23;0.00;0.00;0.00
14880;PMS7003;7533;51.278;12.588;2023-06-01T01:17:33;0.00;0.00;0.00
14880;PMS7003;7533;51.278;12.588;2023-06-01T01:22:52;1.00;1.00;0.25
14880;PMS7003;7533;51.278;12.588;2023-06-01T01:28:08;0.00;0.00;0.00
14880;PMS7003;7533;51.278;12.588;2023-06-01T01:33:18;0.50;0.50;0.00
14880;PMS7003;7533;51.278;12.588;2023-06-01T01:38:23;0.00;0.00;0.00
14880;PMS7003;7533;51.278;12.588;2023-06-01T01:43:26;1.00;0.75;0.00
14880;PMS7003;7533;51.278;12.588;2023-06-01T01:48:42;0.00;0.00;0.00
14880;PMS7003;7533;51.278;12.588;2023-06-01T01:53:50;2.00;1.00;0.00
14880;PMS7003;7533;51.278;12.588;2023-06-01T01:58:54;0.75;0.75;0.00
14880;PMS7003;7533;51.278;12.588;2023-06-01T02:04:00;0.00;0.00;0.00
14880;PMS7003;7533;51.278;12.588;2023-06-01T02:09:04;1.00;0.00;0.00
14880;PMS7003;7533;51.278;12.588;2023-06-01T02:14:09;0.00;0.00;0.00
14880;PMS7003;7533;51.278;12.588;2023-06-01T02:19:13;0.00;0.00;0.00
14880;PMS7003;7533;51.278;12.588;2023-06-01T02:24:16;0.75;0.75;0.00
14880;PMS7003;7533;51.278;12.588;2023-06-01T02:29:20;0.00;0.00;0.00
14880;PMS7003;7533;51.278;12.588;2023-06-01T02:34:25;0.00;0.00;0.00
14880;PMS7003;7533;51.278;12.588;2023-06-01T02:39:28;0.00;0.00;0.00
14880;PMS7003;7533;51.278;12.588;2023-06-01T02:44:31;0.75;0.00;0.00
14880;PMS7003;7533;51.278;12.588;2023-06-01T02:49:35;1.00;0.50;0.00
14880;PMS7003;7533;51.278;12.588;2023-06-01T02:54:38;1.00;1.00;0.00
14880;PMS7003;7533;51.278;12.588;2023-06-01T03:00:01;0.25;0.00;0.00
14880;PMS7003;7533;51.278;12.588;2023-06-01T03:05:07;0.00;0.00;0.00
14880;PMS7003;7533;51.278;12.588;2023-06-01T03:10:10;0.00;0.00;0.00
14880;PMS7003;7533;51.278;12.588;2023-06-01T03:15:34;0.25;0.25;0.00
14880;PMS7003;7533;51.278;12.588;2023-06-01T03:20:40;0.00;0.00;0.00
14880;PMS7003;7533;51.278;12.588;2023-06-01T03:25:43;0.00;0.00;0.00
14880;PMS7003;7533;51.278;12.588;2023-06-01T03:30:46;1.50;0.50;0.00
14880;PMS7003;7533;51.278;12.588;2023-06-01T03:35:51;4.25;1.00;1.00
14880;PMS7003;7533;51.278;12.588;2023-06-01T03:40:53;0.25;0.25;0.00
14880;PMS7003;7533;51.278;12.588;2023-06-01T03:45:56;5.50;4.50;1.75
14880;PMS7003;7533;51.278;12.588;2023-06-01T03:51:01;2.50;2.50;2.00
14880;PMS7003;7533;51.278;12.588;2023-06-01T03:56:04;3.25;2.25;1.00
14880;PMS7003;7533;51.278;12.588;2023-06-01T04:01:13;3.00;3.00;2.00
14880;PMS7003;7533;51.278;12.588;2023-06-01T04:06:19;3.00;3.00;1.75
14880;PMS7003;7533;51.278;12.588;2023-06-01T04:11:22;4.25;4.25;2.50
14880;PMS7003;7533;51.278;12.588;2023-06-01T04:16:27;2.50;2.50;1.50
14880;PMS7003;7533;51.278;12.588;2023-06-01T04:21:31;5.50;4.00;2.00
14880;PMS7003;7533;51.278;12.588;2023-06-01T04:26:34;3.00;2.00;1.00
14880;PMS7003;7533;51.278;12.588;2023-06-01T04:31:38;3.75;3.75;2.00
14880;PMS7003;7533;51.278;12.588;2023-06-01T04:36:42;2.50;2.50;2.00
14880;PMS7003;7533;51.278;12.588;2023-06-01T04:41:46;2.00;2.00;2.00
14880;PMS7003;7533;51.278;12.588;2023-06-01T04:47:00;3.75;3.00;1.75
14880;PMS7003;7533;51.278;12.588;2023-06-01T04:52:06;3.00;3.00;3.00
14880;PMS7003;7533;51.278;12.588;2023-06-01T04:57:14;4.00;3.50;2.00
14880;PMS7003;7533;51.278;12.588;2023-06-01T05:02:17;1.50;1.25;1.00
14880;PMS7003;7533;51.278;12.588;2023-06-01T05:07:22;2.50;2.50;1.50
14880;PMS7003;7533;51.278;12.588;2023-06-01T05:12:26;2.75;2.75;2.00
14880;PMS7003;7533;51.278;12.588;2023-06-01T05:17:29;5.50;5.00;2.25
14880;PMS7003;7533;51.278;12.588;2023-06-01T05:22:35;4.00;2.50;1.75
14880;PMS7003;7533;51.278;12.588;2023-06-01T05:27:39;3.00;2.75;1.75
14880;PMS7003;7533;51.278;12.588;2023-06-01T05:32:42;5.00;4.00;1.50
14880;PMS7003;7533;51.278;12.588;2023-06-01T05:37:50;4.00;3.00;1.75
14880;PMS7003;7533;51.278;12.588;2023-06-01T05:42:54;4.00;3.50;1.25
14880;PMS7003;7533;51.278;12.588;2023-06-01T05:47:57;3.00;3.00;2.00
14880;PMS7003;7533;51.278;12.588;2023-06-01T05:53:01;2.50;2.50;2.00
14880;PMS7003;7533;51.278;12.588;2023-06-01T05:58:04;5.50;3.50;1.25
14880;PMS7003;7533;51.278;12.588;2023-06-01T06:03:07;3.00;3.00;1.25
14880;PMS7003;7533;51.278;12.588;2023-06-01T06:08:11;3.00;3.00;2.00
14880;PMS7003;7533;51.278;12.588;2023-06-01T06:13:14;4.00;4.00;2.00
14880;PMS7003;7533;51.278;12.588;2023-06-01T06:18:17;2.25;2.25;1.25
14880;PMS7003;7533;51.278;12.588;2023-06-01T06:23:23;3.75;3.00;1.50
14880;PMS7003;7533;51.278;12.588;2023-06-01T06:28:26;4.00;4.00;2.00
14880;PMS7003;7533;51.278;12.588;2023-06-01T06:33:29;4.50;4.00;2.00
14880;PMS7003;7533;51.278;12.588;2023-06-01T06:38:33;5.50;5.00;2.00
14880;PMS7003;7533;51.278;12.588;2023-06-01T06:43:37;5.25;4.25;2.00
14880;PMS7003;7533;51.278;12.588;2023-06-01T06:48:39;5.50;3.50;2.00
14880;PMS7003;7533;51.278;12.588;2023-06-01T06:53:44;4.00;2.50;1.75
14880;PMS7003;7533;51.278;12.588;2023-06-01T06:58:47;3.00;3.00;1.25
14880;PMS7003;7533;51.278;12.588;2023-06-01T07:04:04;4.75;3.00;2.00
14880;PMS7003;7533;51.278;12.588;2023-06-01T07:09:09;5.75;5.25;2.50
14880;PMS7003;7533;51.278;12.588;2023-06-01T07:14:12;7.25;5.50;1.75
14880;PMS7003;7533;51.278;12.588;2023-06-01T07:19:16;5.50;4.50;2.25
14880;PMS7003;7533;51.278;12.588;2023-06-01T07:24:20;2.00;2.00;1.00
14880;PMS7003;7533;51.278;12.588;2023-06-01T07:29:24;4.50;3.75;2.00
14880;PMS7003;7533;51.278;12.588;2023-06-01T07:34:28;4.50;4.50;2.25
14880;PMS7003;7533;51.278;12.588;2023-06-01T07:39:32;6.25;5.00;2.00
14880;PMS7003;7533;51.278;12.588;2023-06-01T07:44:35;4.50;4.25;2.00
14880;PMS7003;7533;51.278;12.588;2023-06-01T07:49:38;6.50;5.00;2.00
14880;PMS7003;7533;51.278;12.588;2023-06-01T07:54:42;3.75;3.75;2.00
14880;PMS7003;7533;51.278;12.588;2023-06-01T07:59:45;5.75;5.25;2.00
14880;PMS7003;7533;51.278;12.588;2023-06-01T08:04:48;4.00;3.50;2.00
14880;PMS7003;7533;51.278;12.588;2023-06-01T08:09:54;4.50;4.50;3.00
14880;PMS7003;7533;51.278;12.588;2023-06-01T08:14:57;5.50;5.50;3.50
14880;PMS7003;7533;51.278;12.588;2023-06-01T08:20:00;6.50;5.50;2.50
14880;PMS7003;7533;51.278;12.588;2023-06-01T08:25:10;5.75;4.25;2.75
14880;PMS7003;7533;51.278;12.588;2023-06-01T08:30:13;5.00;5.00;3.00
14880;PMS7003;7533;51.278;12.588;2023-06-01T08:35:16;7.50;7.50;4.00
14880;PMS7003;7533;51.278;12.588;2023-06-01T08:40:21;6.50;6.00;2.00
14880;PMS7003;7533;51.278;12.588;2023-06-01T08:45:25;4.00;4.00;2.25
14880;PMS7003;7533;51.278;12.588;2023-06-01T08:50:28;6.75;5.00;2.75
14880;PMS7003;7533;51.278;12.588;2023-06-01T08:55:33;4.25;2.75;1.25
14880;PMS7003;7533;51.278;12.588;2023-06-01T09:00:37;3.25;3.00;2.00
14880;PMS7003;7533;51.278;12.588;2023-06-01T09:05:40;3.00;3.00;2.00
14880;PMS7003;7533;51.278;12.588;2023-06-01T09:10:44;3.25;3.25;2.00
14880;PMS7003;7533;51.278;12.588;2023-06-01T09:15:50;3.50;3.50;2.00
14880;PMS7003;7533;51.278;12.588;2023-06-01T09:20:55;3.50;3.50;2.00
14880;PMS7003;7533;51.278;12.588;2023-06-01T09:26:14;4.00;4.00;2.00
14880;PMS7003;7533;51.278;12.588;2023-06-01T09:36:43;2.25;2.25;1.75
14880;PMS7003;7533;51.278;12.588;2023-06-01T09:41:48;4.75;4.75;3.00
14880;PMS7003;7533;51.278;12.588;2023-06-01T09:46:53;5.25;4.00;2.00
14880;PMS7003;7533;51.278;12.588;2023-06-01T09:57:21;4.00;3.50;2.00
14880;PMS7003;7533;51.278;12.588;2023-06-01T10:02:25;5.00;5.00;3.00
14880;PMS7003;7533;51.278;12.588;2023-06-01T10:07:30;5.00;5.00;2.00
14880;PMS7003;7533;51.278;12.588;2023-06-01T10:12:36;4.00;4.00;2.25
14880;PMS7003;7533;51.278;12.588;2023-06-01T10:17:39;5.50;5.50;2.75
14880;PMS7003;7533;51.278;12.588;2023-06-01T10:22:44;3.75;3.50;2.25
14880;PMS7003;7533;51.278;12.588;2023-06-01T10:27:52;7.75;5.50;2.50
14880;PMS7003;7533;51.278;12.588;2023-06-01T10:32:59;5.75;5.75;3.00
14880;PMS7003;7533;51.278;12.588;2023-06-01T10:43:41;5.25;5.25;3.00
14880;PMS7003;7533;51.278;12.588;2023-06-01T10:48:50;4.00;4.00;2.00
14880;PMS7003;7533;51.278;12.588;2023-06-01T10:53:54;6.50;4.50;2.75
14880;PMS7003;7533;51.278;12.588;2023-06-01T10:59:34;6.50;6.00;3.00
14880;PMS7003;7533;51.278;12.588;2023-06-01T11:04:37;6.50;5.50;3.00
14880;PMS7003;7533;51.278;12.588;2023-06-01T11:09:42;5.75;5.25;2.00
14880;PMS7003;7533;51.278;12.588;2023-06-01T11:20:13;10.50;8.00;3.75
14880;PMS7003;7533;51.278;12.588;2023-06-01T11:25:17;4.00;3.50;2.00
14880;PMS7003;7533;51.278;12.588;2023-06-01T11:30:21;6.00;5.50;3.00
14880;PMS7003;7533;51.278;12.588;2023-06-01T11:35:25;4.50;4.00;2.25
14880;PMS7003;7533;51.278;12.588;2023-06-01T11:40:28;7.25;5.50;3.00
14880;PMS7003;7533;51.278;12.588;2023-06-01T11:45:38;5.00;5.00;3.00
14880;PMS7003;7533;51.278;12.588;2023-06-01T11:50:45;3.50;3.50;2.75
14880;PMS7003;7533;51.278;12.588;2023-06-01T11:55:49;7.50;6.50;3.75
14880;PMS7003;7533;51.278;12.588;2023-06-01T12:00:54;6.00;4.75;3.00
14880;PMS7003;7533;51.278;12.588;2023-06-01T12:05:57;6.75;5.00;2.00
14880;PMS7003;7533;51.278;12.588;2023-06-01T12:11:00;8.00;7.00;4.00
14880;PMS7003;7533;51.278;12.588;2023-06-01T12:16:06;9.00;7.50;4.00
14880;PMS7003;7533;51.278;12.588;2023-06-01T12:21:22;4.25;4.25;2.50
14880;PMS7003;7533;51.278;12.588;2023-06-01T12:26:34;6.50;5.50;2.00
14880;PMS7003;7533;51.278;12.588;2023-06-01T12:31:39;7.00;6.00;3.00
14880;PMS7003;7533;51.278;12.588;2023-06-01T12:36:55;7.75;7.25;3.00
14880;PMS7003;7533;51.278;12.588;2023-06-01T12:41:58;10.00;8.00;4.00
14880;PMS7003;7533;51.278;12.588;2023-06-01T12:47:03;9.00;6.50;3.75
14880;PMS7003;7533;51.278;12.588;2023-06-01T12:52:06;7.25;7.25;4.25
14880;PMS7003;7533;51.278;12.588;2023-06-01T12:57:12;6.75;6.50;3.00
14880;PMS7003;7533;51.278;12.588;2023-06-01T13:02:17;9.75;7.25;5.00
14880;PMS7003;7533;51.278;12.588;2023-06-01T13:07:20;9.75;7.25;4.00
14880;PMS7003;7533;51.278;12.588;2023-06-01T13:12:25;9.25;7.25;4.00
14880;PMS7003;7533;51.278;12.588;2023-06-01T13:17:30;7.50;5.25;3.00
14880;PMS7003;7533;51.278;12.588;2023-06-01T13:22:33;7.00;7.00;3.25
14880;PMS7003;7533;51.278;12.588;2023-06-01T13:27:36;7.75;7.00;3.50
14880;PMS7003;7533;51.278;12.588;2023-06-01T13:32:40;6.25;6.25;3.25
14880;PMS7003;7533;51.278;12.588;2023-06-01T13:37:44;7.50;7.50;4.25
14880;PMS7003;7533;51.278;12.588;2023-06-01T13:42:47;6.25;5.00;3.00
14880;PMS7003;7533;51.278;12.588;2023-06-01T13:47:52;9.00;5.00;2.50
14880;PMS7003;7533;51.278;12.588;2023-06-01T13:52:56;7.25;5.75;3.00
14880;PMS7003;7533;51.278;12.588;2023-06-01T13:57:59;7.75;6.50;3.25
14880;PMS7003;7533;51.278;12.588;2023-06-01T14:03:03;6.50;6.50;3.00
14880;PMS7003;7533;51.278;12.588;2023-06-01T14:08:07;7.75;7.75;4.00
14880;PMS7003;7533;51.278;12.588;2023-06-01T14:13:10;7.25;5.50;3.00
14880;PMS7003;7533;51.278;12.588;2023-06-01T14:18:14;7.75;7.50;4.00
14880;PMS7003;7533;51.278;12.588;2023-06-01T14:23:17;7.75;6.00;3.00
14880;PMS7003;7533;51.278;12.588;2023-06-01T14:28:21;9.25;7.75;3.00
14880;PMS7003;7533;51.278;12.588;2023-06-01T14:33:25;7.00;6.25;3.00
14880;PMS7003;7533;51.278;12.588;2023-06-01T14:38:28;10.75;7.75;4.00
14880;PMS7003;7533;51.278;12.588;2023-06-01T14:43:31;8.00;7.00;4.00
14880;PMS7003;7533;51.278;12.588;2023-06-01T14:48:35;6.00;5.75;3.00
14880;PMS7003;7533;51.278;12.588;2023-06-01T14:53:38;6.00;4.50;2.75
14880;PMS7003;7533;51.278;12.588;2023-06-01T14:58:41;6.75;4.75;3.25
14880;PMS7003;7533;51.278;12.588;2023-06-01T15:03:46;7.25;5.50;2.25
14880;PMS7003;7533;51.278;12.588;2023-06-01T15:08:49;5.25;4.75;2.50
14880;PMS7003;7533;51.278;12.588;2023-06-01T15:13:52;5.25;4.25;1.50
14880;PMS7003;7533;51.278;12.588;2023-06-01T15:18:56;5.75;4.00;2.25
14880;PMS7003;7533;51.278;12.588;2023-06-01T15:23:59;4.50;3.50;1.00
14880;PMS7003;7533;51.278;12.588;2023-06-01T15:29:02;5.00;4.75;2.00
14880;PMS7003;7533;51.278;12.588;2023-06-01T15:34:06;4.50;3.75;1.50
14880;PMS7003;7533;51.278;12.588;2023-06-01T15:39:13;4.75;4.75;2.00
14880;PMS7003;7533;51.278;12.588;2023-06-01T15:44:17;7.25;6.00;2.00
14880;PMS7003;7533;51.278;12.588;2023-06-01T15:49:21;5.50;5.50;3.50
14880;PMS7003;7533;51.278;12.588;2023-06-01T15:54:24;5.25;4.00;2.00
14880;PMS7003;7533;51.278;12.588;2023-06-01T15:59:27;4.75;4.00;2.00
14880;PMS7003;7533;51.278;12.588;2023-06-01T16:04:31;6.75;5.50;2.50
14880;PMS7003;7533;51.278;12.588;2023-06-01T16:09:34;6.50;5.50;2.50
14880;PMS7003;7533;51.278;12.588;2023-06-01T16:14:37;5.25;4.25;2.00
14880;PMS7003;7533;51.278;12.588;2023-06-01T16:19:42;5.75;5.00;2.00
14880;PMS7003;7533;51.278;12.588;2023-06-01T16:24:45;3.75;3.25;1.50
14880;PMS7003;7533;51.278;12.588;2023-06-01T16:29:48;3.25;3.25;1.50
14880;PMS7003;7533;51.278;12.588;2023-06-01T16:34:52;3.50;3.50;2.00
14880;PMS7003;7533;51.278;12.588;2023-06-01T16:39:55;6.00;4.00;2.50
14880;PMS7003;7533;51.278;12.588;2023-06-01T16:44:58;3.75;2.75;1.50
14880;PMS7003;7533;51.278;12.588;2023-06-01T16:50:03;4.50;4.00;2.75
14880;PMS7003;7533;51.278;12.588;2023-06-01T16:55:06;5.67;4.33;2.00
14880;PMS7003;7533;51.278;12.588;2023-06-01T17:00:10;6.00;3.75;2.00
14880;PMS7003;7533;51.278;12.588;2023-06-01T17:05:15;4.75;3.75;1.50
14880;PMS7003;7533;51.278;12.588;2023-06-01T17:10:18;5.50;5.00;1.50
14880;PMS7003;7533;51.278;12.588;2023-06-01T17:15:21;3.50;3.50;2.00
14880;PMS7003;7533;51.278;12.588;2023-06-01T17:20:26;5.00;3.25;1.00
14880;PMS7003;7533;51.278;12.588;2023-06-01T17:25:29;1.00;1.00;0.00
14880;PMS7003;7533;51.278;12.588;2023-06-01T17:30:32;2.75;2.75;1.00
14880;PMS7003;7533;51.278;12.588;2023-06-01T17:35:36;2.75;2.75;0.75
14880;PMS7003;7533;51.278;12.588;2023-06-01T17:40:40;5.00;3.75;1.00
14880;PMS7003;7533;51.278;12.588;2023-06-01T17:45:43;2.25;1.00;0.75
14880;PMS7003;7533;51.278;12.588;2023-06-01T17:50:48;3.00;2.00;1.00
14880;PMS7003;7533;51.278;12.588;2023-06-01T17:55:54;1.50;1.50;1.00
14880;PMS7003;7533;51.278;12.588;2023-06-01T18:00:57;2.00;2.00;0.00
14880;PMS7003;7533;51.278;12.588;2023-06-01T18:06:01;3.25;2.00;0.00
14880;PMS7003;7533;51.278;12.588;2023-06-01T18:11:06;2.00;1.00;0.25
14880;PMS7003;7533;51.278;12.588;2023-06-01T18:16:10;2.00;2.00;0.25
14880;PMS7003;7533;51.278;12.588;2023-06-01T18:21:14;2.00;2.00;1.00
14880;PMS7003;7533;51.278;12.588;2023-06-01T18:26:18;3.00;2.00;0.00
14880;PMS7003;7533;51.278;12.588;2023-06-01T18:31:22;3.00;3.00;1.00
14880;PMS7003;7533;51.278;12.588;2023-06-01T18:36:26;3.75;2.75;1.00
14880;PMS7003;7533;51.278;12.588;2023-06-01T18:41:30;2.00;2.00;0.00
14880;PMS7003;7533;51.278;12.588;2023-06-01T18:46:33;2.00;2.00;1.00
14880;PMS7003;7533;51.278;12.588;2023-06-01T18:51:40;3.00;3.00;0.75
14880;PMS7003;7533;51.278;12.588;2023-06-01T18:56:43;2.00;1.25;0.25
14880;PMS7003;7533;51.278;12.588;2023-06-01T19:01:48;3.25;3.00;0.00
14880;PMS7003;7533;51.278;12.588;2023-06-01T19:06:53;1.00;1.00;0.00
14880;PMS7003;7533;51.278;12.588;2023-06-01T19:11:57;2.00;2.00;1.00
14880;PMS7003;7533;51.278;12.588;2023-06-01T19:16:59;1.00;1.00;0.25
14880;PMS7003;7533;51.278;12.588;2023-06-01T19:22:04;1.00;0.00;0.00
14880;PMS7003;7533;51.278;12.588;2023-06-01T19:27:08;1.75;1.25;0.00
14880;PMS7003;7533;51.278;12.588;2023-06-01T19:32:12;0.25;0.25;0.00
14880;PMS7003;7533;51.278;12.588;2023-06-01T19:37:17;3.00;1.25;0.00
14880;PMS7003;7533;51.278;12.588;2023-06-01T19:47:41;3.75;2.25;0.00
14880;PMS7003;7533;51.278;12.588;2023-06-01T19:52:49;1.00;1.00;0.00
14880;PMS7003;7533;51.278;12.588;2023-06-01T19:57:51;2.00;2.00;1.00
14880;PMS7003;7533;51.278;12.588;2023-06-01T20:02:55;1.25;1.00;0.00
14880;PMS7003;7533;51.278;12.588;2023-06-01T20:08:04;3.00;2.00;0.50
14880;PMS7003;7533;51.278;12.588;2023-06-01T20:13:09;3.00;2.00;1.00
14880;PMS7003;7533;51.278;12.588;2023-06-01T20:18:12;4.25;2.00;1.00
14880;PMS7003;7533;51.278;12.588;2023-06-01T20:23:17;1.25;1.25;0.25
14880;PMS7003;7533;51.278;12.588;2023-06-01T20:33:47;1.00;0.50;0.00
14880;PMS7003;7533;51.278;12.588;2023-06-01T20:38:52;0.00;0.00;0.00
14880;PMS7003;7533;51.278;12.588;2023-06-01T20:43:56;2.00;2.00;0.00
14880;PMS7003;7533;51.278;12.588;2023-06-01T20:49:00;1.25;1.25;1.00
14880;PMS7003;7533;51.278;12.588;2023-06-01T20:54:06;1.00;1.00;0.00
14880;PMS7003;7533;51.278;12.588;2023-06-01T20:59:11;0.50;0.50;0.00
14880;PMS7003;7533;51.278;12.588;2023-06-01T21:04:15;0.50;0.50;0.00
14880;PMS7003;7533;51.278;12.588;2023-06-01T21:09:20;1.50;0.75;0.00
14880;PMS7003;7533;51.278;12.588;2023-06-01T21:14:24;2.25;1.00;0.00
14880;PMS7003;7533;51.278;12.588;2023-06-01T21:19:27;1.00;0.50;0.00
14880;PMS7003;7533;51.278;12.588;2023-06-01T21:24:31;2.00;1.00;0.00
14880;PMS7003;7533;51.278;12.588;2023-06-01T21:29:34;1.00;1.00;0.00
14880;PMS7003;7533;51.278;12.588;2023-06-01T21:34:37;2.50;1.50;0.00
14880;PMS7003;7533;51.278;12.588;2023-06-01T21:39:42;0.00;0.00;0.00
14880;PMS7003;7533;51.278;12.588;2023-06-01T21:44:46;1.50;1.00;0.00
14880;PMS7003;7533;51.278;12.588;2023-06-01T21:49:49;1.00;1.00;0.00
14880;PMS7003;7533;51.278;12.588;2023-06-01T21:54:53;2.00;1.00;0.00
14880;PMS7003;7533;51.278;12.588;2023-06-01T21:59:56;3.00;2.00;0.00
14880;PMS7003;7533;51.278;12.588;2023-06-01T22:05:00;1.00;1.00;0.00
14880;PMS7003;7533;51.278;12.588;2023-06-01T22:10:05;1.50;0.50;0.00
14880;PMS7003;7533;51.278;12.588;2023-06-01T22:15:10;0.50;0.50;0.00
14880;PMS7003;7533;51.278;12.588;2023-06-01T22:20:13;1.75;1.75;0.00
14880;PMS7003;7533;51.278;12.588;2023-06-01T22:25:18;1.00;1.00;0.00
14880;PMS7003;7533;51.278;12.588;2023-06-01T22:30:21;1.25;0.75;0.00
14880;PMS7003;7533;51.278;12.588;2023-06-01T22:35:24;0.50;0.00;0.00
14880;PMS7003;7533;51.278;12.588;2023-06-01T22:40:28;2.00;0.25;0.00
14880;PMS7003;7533;51.278;12.588;2023-06-01T22:45:32;0.00;0.00;0.00
14880;PMS7003;7533;51.278;12.588;2023-06-01T22:50:35;0.00;0.00;0.00
14880;PMS7003;7533;51.278;12.588;2023-06-01T22:55:39;0.75;0.50;0.00
14880;PMS7003;7533;51.278;12.588;2023-06-01T23:00:42;2.50;1.00;0.00
14880;PMS7003;7533;51.278;12.588;2023-06-01T23:05:45;1.25;1.25;1.00
14880;PMS7003;7533;51.278;12.588;2023-06-01T23:10:52;2.00;1.00;0.00
14880;PMS7003;7533;51.278;12.588;2023-06-01T23:15:55;2.75;2.00;0.25
14880;PMS7003;7533;51.278;12.588;2023-06-01T23:21:01;0.75;0.75;0.00
14880;PMS7003;7533;51.278;12.588;2023-06-01T23:26:05;1.00;1.00;0.00
14880;PMS7003;7533;51.278;12.588;2023-06-01T23:31:08;4.00;0.50;0.00
14880;PMS7003;7533;51.278;12.588;2023-06-01T23:36:11;0.00;0.00;0.00
14880;PMS7003;7533;51.278;12.588;2023-06-01T23:41:16;1.00;1.00;0.00
14880;PMS7003;7533;51.278;12.588;2023-06-01T23:46:19;0.00;0.00;0.00
14880;PMS7003;7533;51.278;12.588;2023-06-01T23:51:22;0.00;0.00;0.00
14880;PMS7003;7533;51.278;12.588;2023-06-01T23:56:27;1.00;1.00;0.00
